Time;durP1;ratioP1;P1;durP2;ratioP2;P2;SDS_P1;SDS_P2;PMS_P1;PMS_P2;Temp;Humidity;BMP_temperature;BMP_pressure;BME280_temperature;BME280_humidity;BME280_pressure;Samples;Min_cycle;Max_cycle;Signal;HPM_P1;HPM_P2
2023/05/13 00:02:15;;;;;;;10.27;6.55;;;11.00;99.90;;;;;;5012086;28;20041;-56
2023/05/13 00:04:41;;;;;;;7.95;6.53;;;11.00;99.90;;;;;;5011996;28;20074;-56
2023/05/13 00:07:07;;;;;;;11.73;5.80;;;11.10;99.90;;;;;;5014795;28;20060;-55
2023/05/13 00:09:33;;;;;;;9.85;6.70;;;10.80;99.90;;;;;;5014513;28;20049;-56
2023/05/13 00:11:58;;;;;;;10.77;7.25;;;10.60;99.90;;;;;;5015868;28;20037;-56
2023/05/13 00:14:24;;;;;;;10.18;7.03;;;10.70;99.90;;;;;;5015847;28;20480;-56
2023/05/13 00:16:50;;;;;;;8.27;7.10;;;10.50;99.90;;;;;;5015788;28;20437;-56
2023/05/13 00:19:15;;;;;;;7.43;6.65;;;10.40;99.90;;;;;;5014234;28;20050;-56
2023/05/13 00:21:41;;;;;;;8.15;6.80;;;10.80;99.90;;;;;;5015756;28;20049;-56
2023/05/13 00:24:07;;;;;;;10.23;6.82;;;10.50;99.90;;;;;;5014297;28;20058;-56
2023/05/13 00:26:32;;;;;;;8.63;7.32;;;10.30;99.90;;;;;;5015695;28;20030;-56
2023/05/13 00:28:58;;;;;;;9.23;6.90;;;10.30;99.90;;;;;;5030581;28;20053;-56
2023/05/13 00:31:24;;;;;;;9.10;6.72;;;10.30;99.90;;;;;;5014973;28;20046;-56
2023/05/13 00:33:49;;;;;;;8.40;6.22;;;10.30;99.90;;;;;;5015274;28;20049;-56
2023/05/13 00:36:15;;;;;;;9.60;6.80;;;10.20;99.90;;;;;;5015033;28;20500;-56
2023/05/13 00:38:42;;;;;;;9.85;6.95;;;10.10;99.90;;;;;;5015389;28;20095;-56
2023/05/13 00:41:08;;;;;;;10.00;7.00;;;10.30;99.90;;;;;;5015383;28;20116;-56
2023/05/13 00:43:34;;;;;;;9.70;7.90;;;10.40;99.90;;;;;;5015159;28;20124;-56
2023/05/13 00:46:00;;;;;;;10.85;7.07;;;10.10;99.90;;;;;;5014893;28;20213;-55
2023/05/13 00:48:26;;;;;;;10.70;7.47;;;10.70;99.90;;;;;;5015176;28;20095;-56
2023/05/13 00:50:51;;;;;;;13.13;7.60;;;10.10;99.90;;;;;;5014992;28;20038;-56
2023/05/13 00:53:17;;;;;;;10.45;7.18;;;10.10;99.90;;;;;;5015339;28;20514;-56
2023/05/13 00:55:44;;;;;;;7.95;6.18;;;10.10;99.90;;;;;;5015044;28;20081;-56
2023/05/13 00:58:10;;;;;;;9.63;6.82;;;10.40;99.90;;;;;;5015271;28;20044;-55
2023/05/13 01:01:19;;;;;;;9.48;7.22;;;10.10;99.90;;;;;;5014949;28;20042;-56
2023/05/13 01:04:16;;;;;;;8.02;6.95;;;10.10;99.90;;;;;;4970916;28;20057;-56
2023/05/13 01:07:17;;;;;;;10.60;6.82;;;10.10;99.90;;;;;;5014755;28;20050;-56
2023/05/13 01:10:24;;;;;;;9.43;7.00;;;10.10;99.90;;;;;;5026862;28;20046;-56
2023/05/13 01:12:55;;;;;;;8.65;7.40;;;10.10;99.90;;;;;;5013704;28;20042;-56
2023/05/13 01:15:25;;;;;;;6.90;6.13;;;10.00;99.90;;;;;;5014440;28;20057;-55
2023/05/13 01:18:05;;;;;;;11.45;7.60;;;10.20;99.90;;;;;;5006902;28;20050;-56
2023/05/13 01:20:32;;;;;;;9.38;7.28;;;10.00;99.90;;;;;;4995095;28;20117;-56
2023/05/13 01:22:57;;;;;;;9.82;7.32;;;10.00;99.90;;;;;;4994890;28;20050;-56
2023/05/13 01:25:24;;;;;;;10.48;7.00;;;10.00;99.90;;;;;;4995049;28;20042;-56
2023/05/13 01:27:53;;;;;;;7.72;6.40;;;10.00;99.90;;;;;;5009721;28;20065;-55
2023/05/13 01:30:19;;;;;;;10.07;7.53;;;10.40;99.90;;;;;;4994993;28;20096;-56
2023/05/13 01:32:46;;;;;;;10.65;8.02;;;9.90;99.90;;;;;;4994588;28;20054;-56
2023/05/13 01:35:13;;;;;;;9.27;7.07;;;9.90;99.90;;;;;;4995026;28;20149;-55
2023/05/13 01:37:40;;;;;;;9.43;7.57;;;10.00;99.90;;;;;;4994619;28;20455;-55
2023/05/13 01:40:06;;;;;;;11.05;7.50;;;10.40;99.90;;;;;;4994713;28;20121;-55
2023/05/13 01:42:33;;;;;;;9.00;7.88;;;9.90;99.90;;;;;;5009637;28;20042;-55
2023/05/13 01:44:59;;;;;;;10.90;8.05;;;10.20;99.90;;;;;;4994846;28;20084;-55
2023/05/13 01:47:25;;;;;;;10.75;8.15;;;10.40;99.90;;;;;;4994514;28;20043;-55
2023/05/13 01:49:51;;;;;;;10.88;8.65;;;10.40;99.90;;;;;;4994558;28;20062;-55
2023/05/13 01:52:17;;;;;;;10.23;8.13;;;10.00;99.90;;;;;;4994444;28;20161;-56
2023/05/13 01:54:43;;;;;;;11.27;8.65;;;9.80;99.90;;;;;;4994328;28;20049;-56
2023/05/13 01:57:09;;;;;;;11.88;8.65;;;10.40;99.90;;;;;;4994440;28;20286;-55
2023/05/13 01:59:34;;;;;;;9.38;7.47;;;9.70;99.90;;;;;;4994268;28;20050;-55
2023/05/13 02:02:00;;;;;;;9.50;7.70;;;10.60;99.90;;;;;;4992866;28;20053;-55
2023/05/13 02:04:26;;;;;;;13.00;8.35;;;9.60;99.90;;;;;;4993981;28;20046;-55
2023/05/13 02:06:52;;;;;;;11.20;8.20;;;9.60;99.90;;;;;;4994176;28;20436;-55
2023/05/13 02:09:17;;;;;;;12.10;7.30;;;9.90;99.90;;;;;;4993996;28;20064;-55
2023/05/13 02:11:44;;;;;;;12.48;8.80;;;9.70;99.90;;;;;;4993985;28;20092;-56
2023/05/13 02:14:10;;;;;;;11.98;9.00;;;9.90;99.90;;;;;;5009307;28;20376;-55
2023/05/13 02:16:36;;;;;;;10.20;8.15;;;10.00;99.90;;;;;;4993990;28;20048;-55
2023/05/13 02:19:01;;;;;;;15.38;9.27;;;9.60;99.90;;;;;;5009912;28;20057;-55
2023/05/13 02:21:27;;;;;;;13.32;8.95;;;10.40;99.90;;;;;;5013457;28;20050;-55
2023/05/13 02:23:53;;;;;;;11.93;8.80;;;9.60;99.90;;;;;;5028792;28;20635;-55
2023/05/13 02:26:18;;;;;;;13.02;9.80;;;10.20;99.90;;;;;;5011837;28;20050;-56
2023/05/13 02:28:44;;;;;;;12.23;8.88;;;9.50;99.90;;;;;;5013150;28;20041;-55
2023/05/13 02:31:10;;;;;;;11.00;8.70;;;9.60;99.90;;;;;;5013406;28;20081;-56
2023/05/13 02:33:35;;;;;;;11.20;9.98;;;9.60;99.90;;;;;;5013254;28;20046;-55
2023/05/13 02:36:01;;;;;;;10.43;9.32;;;10.00;99.90;;;;;;5013174;28;20149;-55
2023/05/13 02:38:27;;;;;;;12.15;10.25;;;9.40;99.90;;;;;;5012782;28;20041;-56
2023/05/13 02:40:52;;;;;;;11.82;9.50;;;9.50;99.90;;;;;;5012952;28;20033;-55
2023/05/13 02:43:18;;;;;;;15.30;10.48;;;10.10;99.90;;;;;;5012643;28;20044;-55
2023/05/13 02:45:46;;;;;;;13.32;9.98;;;9.30;99.90;;;;;;5012977;28;20042;-55
2023/05/13 02:48:12;;;;;;;11.70;9.43;;;9.80;99.90;;;;;;5012952;28;20045;-55
2023/05/13 02:50:39;;;;;;;12.00;10.20;;;9.30;99.90;;;;;;5012907;28;20041;-55
2023/05/13 02:53:05;;;;;;;13.23;9.77;;;9.80;99.90;;;;;;5028103;28;20432;-55
2023/05/13 02:55:30;;;;;;;11.80;9.77;;;9.20;99.90;;;;;;5028022;28;20037;-55
2023/05/13 02:57:56;;;;;;;11.95;9.05;;;9.20;99.90;;;;;;5012613;28;20157;-55
2023/05/13 03:00:21;;;;;;;14.20;10.55;;;9.30;99.90;;;;;;5012656;28;20111;-55
2023/05/13 03:02:47;;;;;;;10.27;9.10;;;9.50;99.90;;;;;;5012837;28;20427;-56
2023/05/13 03:05:13;;;;;;;14.30;10.55;;;9.90;99.90;;;;;;5012275;28;20112;-55
2023/05/13 03:07:39;;;;;;;13.60;10.38;;;9.40;99.90;;;;;;5012516;28;20042;-55
2023/05/13 03:10:05;;;;;;;12.18;9.43;;;9.40;99.90;;;;;;5012507;28;20042;-55
2023/05/13 03:12:31;;;;;;;11.68;9.77;;;9.20;99.90;;;;;;5012319;28;20091;-55
2023/05/13 03:14:56;;;;;;;12.48;9.85;;;9.60;99.90;;;;;;5012828;28;20409;-55
2023/05/13 03:17:22;;;;;;;12.68;10.55;;;9.40;99.90;;;;;;5009666;28;20038;-55
2023/05/13 03:19:48;;;;;;;13.05;10.20;;;9.30;99.90;;;;;;4992953;28;20538;-55
2023/05/13 03:22:13;;;;;;;12.30;10.23;;;9.40;99.90;;;;;;4992842;28;20053;-55
2023/05/13 03:24:40;;;;;;;12.52;10.48;;;9.10;99.90;;;;;;4992717;28;20042;-55
2023/05/13 03:27:06;;;;;;;13.18;10.98;;;9.30;99.90;;;;;;4992373;28;20559;-55
2023/05/13 03:29:31;;;;;;;14.50;11.15;;;9.90;99.90;;;;;;4992649;28;20038;-55
2023/05/13 03:31:58;;;;;;;13.68;10.90;;;9.90;99.90;;;;;;4991238;28;20073;-55
2023/05/13 03:34:23;;;;;;;12.15;10.90;;;9.20;99.90;;;;;;4992494;28;20046;-55
2023/05/13 03:36:49;;;;;;;16.83;12.50;;;9.20;99.90;;;;;;4991396;28;20105;-55
2023/05/13 03:39:15;;;;;;;16.27;13.10;;;9.20;99.90;;;;;;4992491;28;20113;-55
2023/05/13 03:41:41;;;;;;;16.90;14.15;;;9.40;99.90;;;;;;4991200;28;20885;-55
2023/05/13 03:44:06;;;;;;;17.48;14.52;;;10.00;99.90;;;;;;4991176;28;20409;-55
2023/05/13 03:46:32;;;;;;;17.33;14.98;;;9.20;99.90;;;;;;4992657;28;20089;-55
2023/05/13 03:48:58;;;;;;;18.20;15.05;;;9.20;99.90;;;;;;5007713;28;20129;-55
2023/05/13 03:51:24;;;;;;;17.38;15.40;;;9.10;99.90;;;;;;4992728;28;20495;-55
2023/05/13 03:53:49;;;;;;;20.25;15.98;;;9.20;99.90;;;;;;5007890;28;20057;-55
2023/05/13 03:56:15;;;;;;;18.35;14.98;;;9.30;99.90;;;;;;4991245;28;20038;-55
2023/05/13 03:58:41;;;;;;;20.13;16.67;;;10.10;99.90;;;;;;4992691;28;20093;-55
2023/05/13 04:01:07;;;;;;;22.63;17.05;;;10.00;99.90;;;;;;4992003;28;20034;-55
2023/05/13 04:03:33;;;;;;;21.25;17.67;;;9.40;99.90;;;;;;5007165;28;20121;-55
2023/05/13 04:05:59;;;;;;;18.30;16.25;;;9.30;99.90;;;;;;4992000;28;20046;-55
2023/05/13 04:08:25;;;;;;;21.13;17.50;;;9.40;99.90;;;;;;4992271;28;20113;-55
2023/05/13 04:10:51;;;;;;;18.48;16.13;;;9.10;99.90;;;;;;4992229;28;20435;-55
2023/05/13 04:13:17;;;;;;;19.05;15.13;;;9.10;99.90;;;;;;4992465;28;20038;-55
2023/05/13 04:15:43;;;;;;;19.85;15.77;;;10.00;99.90;;;;;;4992481;28;20041;-55
2023/05/13 04:18:09;;;;;;;16.80;14.52;;;9.20;99.90;;;;;;5001418;28;20042;-55
2023/05/13 04:20:38;;;;;;;17.48;14.38;;;9.10;99.90;;;;;;5012261;28;20038;-55
2023/05/13 04:23:04;;;;;;;19.20;16.75;;;9.30;99.90;;;;;;5010383;28;20038;-56
2023/05/13 04:25:30;;;;;;;18.58;15.48;;;9.30;99.90;;;;;;5011912;28;20129;-55
2023/05/13 04:27:56;;;;;;;20.60;16.27;;;9.90;99.90;;;;;;5012020;28;20121;-55
2023/05/13 04:30:21;;;;;;;24.50;16.95;;;9.40;99.90;;;;;;5012017;28;20120;-55
2023/05/13 04:32:47;;;;;;;23.38;17.50;;;9.10;99.90;;;;;;5010389;28;20057;-55
2023/05/13 04:35:13;;;;;;;20.50;17.02;;;9.30;99.90;;;;;;5012047;28;20042;-55
2023/05/13 04:37:38;;;;;;;22.75;17.40;;;9.40;99.90;;;;;;5026834;28;20046;-55
2023/05/13 04:40:05;;;;;;;19.80;16.10;;;10.00;99.90;;;;;;5011525;28;20041;-55
2023/05/13 04:42:31;;;;;;;19.15;15.15;;;9.30;99.90;;;;;;5011877;28;20050;-55
2023/05/13 04:44:57;;;;;;;20.65;16.48;;;9.70;99.90;;;;;;5011951;28;20049;-56
2023/05/13 04:47:22;;;;;;;17.77;13.98;;;9.70;99.90;;;;;;5011316;28;20046;-55
2023/05/13 04:49:48;;;;;;;16.83;13.30;;;10.20;99.90;;;;;;5011356;28;20419;-55
2023/05/13 04:52:14;;;;;;;19.67;13.02;;;9.60;99.90;;;;;;5012621;28;20516;-55
2023/05/13 04:54:40;;;;;;;14.80;13.30;;;10.00;99.90;;;;;;5014754;28;20034;-55
2023/05/13 04:57:05;;;;;;;14.35;12.85;;;9.50;99.90;;;;;;5015103;28;20038;-55
2023/05/13 04:59:31;;;;;;;16.58;14.32;;;10.40;99.90;;;;;;5014905;28;20412;-55
2023/05/13 05:01:57;;;;;;;16.48;14.63;;;9.80;99.90;;;;;;5014976;28;20045;-55
2023/05/13 05:04:24;;;;;;;17.80;14.68;;;9.80;99.90;;;;;;5014752;28;20342;-55
2023/05/13 05:06:49;;;;;;;16.40;13.57;;;9.90;99.90;;;;;;5014710;28;20042;-55
2023/05/13 05:09:16;;;;;;;16.80;14.60;;;9.90;99.90;;;;;;5014765;28;20377;-55
2023/05/13 05:11:42;;;;;;;18.25;14.48;;;10.30;99.90;;;;;;5014698;28;20085;-55
2023/05/13 05:14:08;;;;;;;16.85;15.00;;;10.20;99.90;;;;;;5014661;28;20077;-55
2023/05/13 05:16:33;;;;;;;17.05;13.70;;;10.70;99.90;;;;;;5014755;28;20050;-55
2023/05/13 05:18:59;;;;;;;17.70;14.20;;;10.60;99.90;;;;;;4998832;28;20476;-55
2023/05/13 05:21:25;;;;;;;16.10;14.48;;;10.80;99.90;;;;;;4994875;28;20467;-55
2023/05/13 05:23:51;;;;;;;17.05;13.98;;;11.00;99.90;;;;;;4995221;28;20046;-55
2023/05/13 05:26:16;;;;;;;19.20;16.00;;;11.50;99.90;;;;;;4994878;28;20117;-55
2023/05/13 05:28:43;;;;;;;18.67;14.02;;;11.50;99.90;;;;;;4994829;28;20034;-55
2023/05/13 05:31:09;;;;;;;18.00;13.90;;;11.70;99.90;;;;;;4994569;28;20114;-56
2023/05/13 05:33:35;;;;;;;16.67;13.70;;;12.90;99.90;;;;;;4994910;28;20121;-55
2023/05/13 05:36:01;;;;;;;15.40;13.15;;;14.00;99.90;;;;;;4994937;28;20113;-55
2023/05/13 05:38:27;;;;;;;17.75;13.20;;;14.70;99.90;;;;;;4993592;28;20117;-55
2023/05/13 05:40:53;;;;;;;16.58;12.57;;;13.70;99.90;;;;;;4994619;28;20039;-55
2023/05/13 05:43:18;;;;;;;16.58;14.05;;;13.50;99.90;;;;;;4995076;28;20137;-55
2023/05/13 05:45:45;;;;;;;15.48;12.88;;;13.30;99.90;;;;;;4994496;28;20043;-55
2023/05/13 05:48:10;;;;;;;16.05;13.05;;;13.10;99.90;;;;;;4994506;28;20520;-55
2023/05/13 05:50:36;;;;;;;16.90;12.45;;;12.90;99.90;;;;;;4993019;28;20054;-55
2023/05/13 05:53:02;;;;;;;13.25;11.95;;;13.80;99.90;;;;;;4993977;28;20072;-55
2023/05/13 05:55:30;;;;;;;19.00;13.38;;;13.90;99.90;;;;;;4994390;28;20057;-55
2023/05/13 05:57:56;;;;;;;14.35;12.15;;;14.30;99.90;;;;;;4994182;28;20081;-55
2023/05/13 06:00:23;;;;;;;12.55;11.25;;;15.30;99.90;;;;;;4994287;28;20042;-55
2023/05/13 06:02:49;;;;;;;13.18;11.65;;;15.90;99.90;;;;;;4993958;28;20168;-55
2023/05/13 06:05:15;;;;;;;14.10;12.20;;;15.60;99.90;;;;;;4993818;28;20039;-56
2023/05/13 06:07:41;;;;;;;13.45;11.63;;;15.60;99.90;;;;;;4994329;28;20097;-55
2023/05/13 06:10:07;;;;;;;13.73;10.80;;;15.80;99.90;;;;;;4994335;28;20039;-55
2023/05/13 06:12:33;;;;;;;12.98;11.63;;;15.80;99.90;;;;;;4992724;28;20073;-55
2023/05/13 06:14:59;;;;;;;13.00;10.02;;;16.20;99.90;;;;;;4993945;28;20038;-55
2023/05/13 06:17:25;;;;;;;13.80;10.25;;;16.30;99.90;;;;;;4997180;28;20077;-55
2023/05/13 06:19:50;;;;;;;12.52;10.65;;;16.10;99.90;;;;;;5013509;28;20073;-55
2023/05/13 06:22:16;;;;;;;11.57;9.77;;;16.00;99.90;;;;;;5013502;28;20041;-55
2023/05/13 06:24:43;;;;;;;12.07;10.15;;;15.80;99.90;;;;;;5013363;28;20048;-55
2023/05/13 06:27:12;;;;;;;9.82;8.82;;;15.80;99.90;;;;;;5013496;28;20120;-55
2023/05/13 06:29:38;;;;;;;10.85;9.48;;;15.80;99.90;;;;;;5013137;28;20042;-55
2023/05/13 06:32:04;;;;;;;11.25;9.20;;;15.80;99.90;;;;;;5013148;28;20061;-55
2023/05/13 06:34:30;;;;;;;14.70;9.48;;;15.90;99.90;;;;;;5012975;28;20474;-55
2023/05/13 06:36:56;;;;;;;10.68;8.75;;;16.00;99.90;;;;;;5013237;28;20053;-55
2023/05/13 06:39:22;;;;;;;13.00;9.43;;;16.20;99.90;;;;;;5013188;28;20053;-55
2023/05/13 06:41:47;;;;;;;10.90;8.85;;;16.30;99.90;;;;;;5011887;28;20052;-55
2023/05/13 06:44:13;;;;;;;13.75;9.30;;;16.30;99.90;;;;;;5013065;28;20038;-55
2023/05/13 06:46:39;;;;;;;12.05;8.77;;;16.40;99.90;;;;;;5012852;28;20077;-55
2023/05/13 06:49:05;;;;;;;12.55;9.63;;;16.50;99.90;;;;;;5012942;28;20476;-55
2023/05/13 06:51:32;;;;;;;9.80;8.15;;;16.60;99.90;;;;;;5012968;28;20046;-56
2023/05/13 06:53:58;;;;;;;9.63;8.63;;;16.70;99.90;;;;;;5013303;28;20103;-56
2023/05/13 06:56:24;;;;;;;13.35;8.80;;;16.80;99.90;;;;;;5012837;28;20430;-56
2023/05/13 06:58:51;;;;;;;9.65;7.93;;;16.90;99.90;;;;;;5011214;28;20618;-55
2023/05/13 07:01:17;;;;;;;13.20;8.05;;;17.00;99.90;;;;;;5027411;28;20068;-56
2023/05/13 07:03:43;;;;;;;11.82;7.50;;;17.10;99.90;;;;;;5012686;28;20484;-56
2023/05/13 07:06:09;;;;;;;12.77;9.35;;;17.10;99.90;;;;;;5027303;28;20041;-56
2023/05/13 07:08:35;;;;;;;13.73;8.98;;;17.10;99.90;;;;;;5012702;28;20061;-56
2023/05/13 07:11:01;;;;;;;9.25;7.75;;;17.10;99.90;;;;;;5012748;28;20778;-56
2023/05/13 07:13:26;;;;;;;8.90;7.20;;;17.20;99.90;;;;;;5011203;28;20050;-56
2023/05/13 07:15:52;;;;;;;12.50;8.20;;;17.20;99.80;;;;;;5011778;28;20037;-56
2023/05/13 07:18:18;;;;;;;9.10;7.82;;;17.30;99.90;;;;;;5002023;28;20038;-56
2023/05/13 07:20:44;;;;;;;9.50;7.35;;;17.30;99.90;;;;;;4991474;28;20053;-56
2023/05/13 07:23:09;;;;;;;10.52;7.53;;;17.30;99.90;;;;;;4993171;28;20060;-56
2023/05/13 07:25:35;;;;;;;13.35;8.30;;;17.30;99.90;;;;;;4992805;28;20090;-56
2023/05/13 07:28:01;;;;;;;8.77;7.50;;;17.50;99.90;;;;;;4992860;28;20042;-56
2023/05/13 07:30:26;;;;;;;13.30;7.57;;;17.40;99.90;;;;;;4991513;28;20539;-56
2023/05/13 07:32:52;;;;;;;11.00;7.85;;;17.40;99.90;;;;;;4992574;28;20489;-56
2023/05/13 07:35:18;;;;;;;9.32;7.45;;;17.50;99.90;;;;;;4992562;28;20121;-56
2023/05/13 07:37:44;;;;;;;9.70;7.57;;;17.70;99.90;;;;;;4992946;28;20046;-56
2023/05/13 07:40:10;;;;;;;10.88;7.65;;;17.70;99.90;;;;;;4992516;28;20097;-56
2023/05/13 07:42:36;;;;;;;9.45;7.53;;;17.80;99.90;;;;;;4992400;28;20041;-56
2023/05/13 07:45:02;;;;;;;12.55;7.85;;;17.90;99.20;;;;;;4992454;28;20046;-56
2023/05/13 07:47:30;;;;;;;11.00;7.68;;;18.00;99.10;;;;;;4992500;28;20065;-56
2023/05/13 07:49:56;;;;;;;9.68;7.45;;;18.10;98.60;;;;;;4992692;28;20113;-56
2023/05/13 07:52:22;;;;;;;9.57;7.72;;;18.30;95.80;;;;;;4992723;28;20039;-56
2023/05/13 07:54:48;;;;;;;11.98;7.43;;;18.30;97.90;;;;;;4992692;28;20053;-57
2023/05/13 07:57:14;;;;;;;11.45;7.20;;;18.50;98.00;;;;;;4992645;28;20038;-56
2023/05/13 07:59:40;;;;;;;8.65;6.75;;;18.70;97.30;;;;;;4992551;28;20442;-56
2023/05/13 08:02:05;;;;;;;10.60;7.20;;;18.90;97.20;;;;;;4992558;28;20050;-56
2023/05/13 08:04:31;;;;;;;10.30;6.68;;;19.10;97.10;;;;;;4991942;28;20031;-57
2023/05/13 08:06:57;;;;;;;6.82;5.30;;;19.30;96.80;;;;;;5007377;28;20797;-57
2023/05/13 08:09:23;;;;;;;7.20;6.22;;;19.40;96.20;;;;;;4992552;28;20043;-56
2023/05/13 08:11:49;;;;;;;7.28;6.15;;;19.60;95.80;;;;;;4992410;28;20045;-57
2023/05/13 08:14:14;;;;;;;12.32;6.65;;;19.80;95.10;;;;;;4992645;28;20032;-57
2023/05/13 08:16:40;;;;;;;7.32;5.60;;;20.00;94.80;;;;;;4990944;28;20508;-57
2023/05/13 08:19:06;;;;;;;8.52;6.00;;;20.20;94.70;;;;;;5008805;28;20042;-57
2023/05/13 08:21:31;;;;;;;8.52;5.60;;;20.40;94.40;;;;;;5011759;28;20073;-57
2023/05/13 08:23:57;;;;;;;6.45;5.00;;;20.50;93.40;;;;;;5011941;28;20048;-57
2023/05/13 08:26:23;;;;;;;7.20;5.07;;;20.70;92.10;;;;;;5013241;28;20095;-58
2023/05/13 08:28:48;;;;;;;8.18;4.15;;;20.90;91.70;;;;;;5015727;28;20046;-57
2023/05/13 08:31:14;;;;;;;7.78;4.20;;;21.10;91.90;;;;;;5015373;28;20082;-57
2023/05/13 08:33:46;;;;;;;6.68;3.65;;;21.40;91.70;;;;;;5015134;28;20034;-57
2023/05/13 08:36:12;;;;;;;4.75;3.65;;;21.60;91.00;;;;;;5014036;28;20494;-57
2023/05/13 08:38:37;;;;;;;4.32;3.08;;;21.80;90.20;;;;;;5030572;28;20042;-56
2023/05/13 08:41:05;;;;;;;9.35;3.05;;;21.90;89.80;;;;;;5013935;28;20038;-56
2023/05/13 08:43:31;;;;;;;7.57;3.08;;;22.10;89.80;;;;;;5015307;28;20048;-57
